createdAt,value
2022-08-26T00:01:29.235Z,36.3
2022-08-26T00:04:25.690Z,36.52
2022-08-26T00:06:25.276Z,36.54
2022-08-26T00:08:25.521Z,36.49
2022-08-26T00:11:25.835Z,36.8
2022-08-26T00:14:29.637Z,36.25
2022-08-26T00:16:25.337Z,36.66
2022-08-26T00:19:25.235Z,36.86
2022-08-26T00:21:25.237Z,37.29
2022-08-26T00:23:25.242Z,36.98
2022-08-26T00:26:25.254Z,37.02
2022-08-26T00:28:25.289Z,37.17
2022-08-26T00:31:25.270Z,36.93
2022-08-26T00:34:25.275Z,36.54
2022-08-26T00:36:25.290Z,36.94
2022-08-26T00:39:25.211Z,37.11
2022-08-26T00:41:25.232Z,37.26
2022-08-26T00:43:25.223Z,37.39
2022-08-26T00:46:25.429Z,37.53
2022-08-26T00:49:25.201Z,36.92
2022-08-26T00:51:28.273Z,36.65
2022-08-26T00:53:26.079Z,36.87
2022-08-26T00:55:25.256Z,37.02
2022-08-26T00:57:25.273Z,37.13
2022-08-26T01:00:25.216Z,37.48
2022-08-26T01:02:25.301Z,37.66
2022-08-26T01:05:25.240Z,37.33
2022-08-26T01:07:35.524Z,37.2
2022-08-26T01:09:35.519Z,37.7
2022-08-26T01:12:25.250Z,37.85
2022-08-26T01:14:25.269Z,37.55
2022-08-26T01:16:25.337Z,37.61
2022-08-26T01:19:25.279Z,37.36
2022-08-26T01:21:25.300Z,38.05
2022-08-26T01:24:25.247Z,37.89
2022-08-26T01:26:25.266Z,37.72
2022-08-26T01:28:25.296Z,37.64
2022-08-26T01:30:25.289Z,37.6
2022-08-26T01:32:25.680Z,37.6
2022-08-26T01:35:25.261Z,38.06
2022-08-26T01:37:25.288Z,37.8
2022-08-26T01:39:28.423Z,37.88
2022-08-26T01:41:27.111Z,37.61
2022-08-26T01:44:25.262Z,37.67
2022-08-26T01:46:25.299Z,37.92
2022-08-26T01:49:26.036Z,38.46
2022-08-26T01:51:25.298Z,38.82
2022-08-26T01:54:25.255Z,38.78
2022-08-26T01:57:25.281Z,38.52
2022-08-26T02:00:25.270Z,38.74
2022-08-26T02:02:25.879Z,38.35
2022-08-26T02:05:25.271Z,38.49
2022-08-26T02:08:25.426Z,38.77
2022-08-26T02:11:25.270Z,38.68
2022-08-26T02:13:25.295Z,38.82
2022-08-26T02:16:25.325Z,38.72
2022-08-26T02:18:25.295Z,38.6
2022-08-26T02:21:25.287Z,39.18
2022-08-26T02:24:27.259Z,39.58
2022-08-26T02:26:25.295Z,39.42
2022-08-26T02:28:26.714Z,39.77
2022-08-26T02:31:25.363Z,38.52
2022-08-26T02:34:25.454Z,39.28
2022-08-26T02:37:25.297Z,39.41
2022-08-26T02:40:25.338Z,39.52
2022-08-26T02:42:25.309Z,39.46
2022-08-26T02:45:25.281Z,39.25
2022-08-26T02:47:25.297Z,39.11
2022-08-26T02:50:25.294Z,38.75
2022-08-26T02:53:25.619Z,39.22
2022-08-26T02:56:25.301Z,39.72
2022-08-26T02:59:25.310Z,39.54
2022-08-26T03:02:25.401Z,38.86
2022-08-26T03:04:26.115Z,38.83
2022-08-26T03:07:25.296Z,38.97
2022-08-26T03:09:25.345Z,39.3
2022-08-26T03:12:25.565Z,39.5
2022-08-26T03:14:25.286Z,39.62
2022-08-26T03:16:25.404Z,39.87
2022-08-26T03:19:25.266Z,39.33
2022-08-26T03:21:25.661Z,39.88
2022-08-26T03:24:25.306Z,39.59
2022-08-26T03:26:25.352Z,39.79
2022-08-26T03:29:25.277Z,39.61
2022-08-26T03:31:57.630Z,40.37
2022-08-26T03:34:25.312Z,40.41
2022-08-26T03:36:25.970Z,40.67
2022-08-26T03:39:25.325Z,40.75
2022-08-26T03:41:25.314Z,40.33
2022-08-26T03:44:25.312Z,40.07
2022-08-26T03:47:25.308Z,40.3
2022-08-26T03:49:25.321Z,40.65
2022-08-26T03:51:26.003Z,40.55
2022-08-26T03:54:25.327Z,40.73
2022-08-26T03:57:25.324Z,40.6
2022-08-26T04:00:25.296Z,40.25
2022-08-26T04:03:25.409Z,40.78
2022-08-26T04:06:25.326Z,40.66
2022-08-26T04:08:25.341Z,41.05
2022-08-26T04:11:25.291Z,40.95
2022-08-26T04:13:25.325Z,40.89
2022-08-26T04:15:25.345Z,41.02
2022-08-26T04:18:25.299Z,41.29
2022-08-26T04:20:25.339Z,41.2
2022-08-26T04:23:25.354Z,41.38
2022-08-26T04:26:25.353Z,41.03
2022-08-26T04:28:25.355Z,41.18
2022-08-26T04:30:25.364Z,41.46
2022-08-26T04:32:25.389Z,41.07
2022-08-26T04:35:26.208Z,41.77
2022-08-26T04:37:25.336Z,41.15
2022-08-26T04:40:25.906Z,41.59
2022-08-26T04:43:25.333Z,41.68
2022-08-26T04:46:25.401Z,41.19
2022-08-26T04:48:25.360Z,41.26
2022-08-26T04:50:25.357Z,41.8
2022-08-26T04:53:25.337Z,41.28
2022-08-26T04:56:25.359Z,41.81
2022-08-26T04:59:25.301Z,41.83
2022-08-26T05:01:25.412Z,41.51
2022-08-26T05:04:25.413Z,41.95
2022-08-26T05:06:25.397Z,41.93
2022-08-26T05:08:25.509Z,42.14
2022-08-26T05:11:25.342Z,42.01
2022-08-26T05:13:25.345Z,42.1
2022-08-26T05:16:25.413Z,41.37
2022-08-26T05:19:25.351Z,42.32
2022-08-26T05:22:25.357Z,42.16
2022-08-26T05:24:25.383Z,41.94
2022-08-26T05:27:25.362Z,42.17
2022-08-26T05:33:25.359Z,42.26
2022-08-26T05:36:26.896Z,42.08
2022-08-26T05:38:30.170Z,41.58
2022-08-26T05:41:25.320Z,41.98
2022-08-26T05:44:25.310Z,41.88
2022-08-26T05:46:25.394Z,41.1
2022-08-26T05:49:26.293Z,41.38
2022-08-26T05:51:25.967Z,41.76
2022-08-26T05:54:25.346Z,41.97
2022-08-26T05:57:25.336Z,41.58
2022-08-26T06:00:25.339Z,41.8
2022-08-26T06:03:25.331Z,40.91
2022-08-26T06:05:25.356Z,40.77
2022-08-26T06:08:25.327Z,40.72
2022-08-26T06:10:31.935Z,41.57
2022-08-26T06:13:25.360Z,41.2
2022-08-26T06:16:25.366Z,41.55
2022-08-26T06:18:25.393Z,41.42
2022-08-26T06:21:25.354Z,41.42
2022-08-26T06:23:25.445Z,41.01
2022-08-26T06:25:25.758Z,40.16
2022-08-26T06:28:25.352Z,40.92
2022-08-26T06:30:25.422Z,41.36
2022-08-26T06:33:25.350Z,41.08
2022-08-26T06:35:25.384Z,41.17
2022-08-26T06:38:25.353Z,41.17
2022-08-26T06:40:25.444Z,40.55
2022-08-26T06:42:25.441Z,40.01
2022-08-26T06:45:25.386Z,40.4
2022-08-26T06:47:25.423Z,40.46
2022-08-26T06:50:25.419Z,40.24
2022-08-26T06:53:25.386Z,40.55
2022-08-26T06:56:25.369Z,39.91
2022-08-26T06:58:25.389Z,40.12
2022-08-26T07:01:25.456Z,39.81
2022-08-26T07:03:25.391Z,39.82
2022-08-26T07:06:25.423Z,38.92
2022-08-26T07:10:25.389Z,38.73
2022-08-26T07:13:30.008Z,37.69
2022-08-26T07:15:27.130Z,38.96
2022-08-26T07:18:25.405Z,39.5
2022-08-26T07:21:25.386Z,38.94
2022-08-26T07:23:25.394Z,38.61
2022-08-26T07:25:25.425Z,38.32
2022-08-26T07:27:25.398Z,38.71
2022-08-26T07:29:25.408Z,38.17
2022-08-26T07:31:25.487Z,37.5
2022-08-26T07:34:25.421Z,38.16
2022-08-26T07:37:25.394Z,38.7
2022-08-26T07:39:25.430Z,38.01
2022-08-26T07:42:25.383Z,37.79
2022-08-26T07:45:25.409Z,38.43
2022-08-26T07:48:25.403Z,38.01
2022-08-26T07:51:25.422Z,37.61
2022-08-26T07:53:25.446Z,38.43
2022-08-26T07:56:25.410Z,36.81
2022-08-26T07:58:25.422Z,37.39
2022-08-26T08:01:25.709Z,37
2022-08-26T08:04:26.585Z,37.65
2022-08-26T08:06:26.953Z,36.36
2022-08-26T08:09:25.441Z,35.59
2022-08-26T08:12:25.396Z,35.71
2022-08-26T08:14:25.464Z,35.48
2022-08-26T08:17:25.405Z,35.91
2022-08-26T08:19:27.677Z,35.32
2022-08-26T08:22:25.405Z,35.38
2022-08-26T08:25:25.402Z,35.73
2022-08-26T08:27:25.426Z,34.96
2022-08-26T08:30:25.443Z,35.44
2022-08-26T08:33:25.405Z,35.21
2022-08-26T08:36:25.400Z,34.99
2022-08-26T08:38:25.435Z,34.96
2022-08-26T08:41:25.381Z,35.19
2022-08-26T08:43:25.395Z,36.5
2022-08-26T08:45:25.401Z,35.88
2022-08-26T08:47:25.402Z,34.88
2022-08-26T08:50:25.442Z,35.52
2022-08-26T08:53:25.373Z,35.24
2022-08-26T08:55:25.394Z,34.96
2022-08-26T08:58:25.417Z,36.48
2022-08-26T09:01:25.554Z,36.92
2022-08-26T09:04:25.410Z,35.33
2022-08-26T09:06:25.438Z,35.81
2022-08-26T09:09:25.400Z,37.1
2022-08-26T09:11:25.409Z,37.05
2022-08-26T09:13:26.327Z,35.06
2022-08-26T09:15:26.489Z,36.85
2022-08-26T09:17:25.444Z,36.5
2022-08-26T09:20:25.439Z,34.57
2022-08-26T09:22:25.468Z,34.52
2022-08-26T09:25:25.419Z,35.43
2022-08-26T09:28:25.419Z,34.53
2022-08-26T09:30:25.523Z,36.08
2022-08-26T09:33:25.440Z,34.29
2022-08-26T09:35:25.452Z,34.12
2022-08-26T09:38:26.643Z,34.57
2022-08-26T09:41:25.430Z,34.72
2022-08-26T09:43:25.426Z,34.47
2022-08-26T09:45:25.431Z,34.19
2022-08-26T09:48:25.430Z,34.19
2022-08-26T09:50:28.735Z,35.98
2022-08-26T09:53:32.677Z,35.33
2022-08-26T09:56:25.434Z,35.53
2022-08-26T09:58:25.469Z,34.79
2022-08-26T10:01:25.485Z,34.75
2022-08-26T10:04:25.554Z,34.79
2022-08-26T10:07:25.439Z,34.27
2022-08-26T10:09:32.672Z,34.6
2022-08-26T10:12:25.440Z,36.42
2022-08-26T10:14:25.638Z,34.28
2022-08-26T10:17:25.440Z,34.21
2022-08-26T10:20:25.444Z,34.01
2022-08-26T10:22:25.474Z,33.75
2022-08-26T10:25:25.430Z,34.17
2022-08-26T10:27:25.446Z,34.01
2022-08-26T10:29:25.514Z,34.05
2022-08-26T10:32:25.551Z,33.63
2022-08-26T10:34:25.438Z,33.83
2022-08-26T10:36:25.471Z,34.87
2022-08-26T10:39:25.442Z,33.87
2022-08-26T10:42:25.462Z,33.66
2022-08-26T10:44:25.456Z,33.54
2022-08-26T10:47:25.439Z,33.46
2022-08-26T10:49:25.450Z,35.01
2022-08-26T10:52:28.512Z,33.59
2022-08-26T10:55:25.439Z,33.64
2022-08-26T10:57:25.463Z,33.76
2022-08-26T11:00:25.439Z,33.58
2022-08-26T11:02:25.512Z,33.24
2022-08-26T11:05:25.478Z,33.21
2022-08-26T11:08:25.466Z,33.18
2022-08-26T11:10:25.456Z,33.17
2022-08-26T11:12:25.536Z,33.14
2022-08-26T11:14:28.563Z,32.97
2022-08-26T11:17:25.508Z,33.2
2022-08-26T11:20:25.505Z,32.86
2022-08-26T11:23:25.454Z,32.25
2022-08-26T11:25:29.871Z,32.12
2022-08-26T11:28:25.453Z,32.04
2022-08-26T11:30:25.480Z,32.29
2022-08-26T11:32:25.496Z,31.53
2022-08-26T11:35:25.494Z,31.6
2022-08-26T11:37:25.529Z,31.38
2022-08-26T11:40:25.513Z,30.9
2022-08-26T11:42:25.494Z,31.16
2022-08-26T11:45:25.519Z,30.81
2022-08-26T11:48:25.490Z,30.71
2022-08-26T11:50:25.763Z,31.05
2022-08-26T11:53:25.522Z,30.71
2022-08-26T11:56:25.489Z,30.36
2022-08-26T11:59:25.542Z,30.55
2022-08-26T12:02:25.477Z,30.1
2022-08-26T12:04:25.622Z,30.02
2022-08-26T12:07:25.449Z,29.8
2022-08-26T12:09:25.485Z,29.89
2022-08-26T12:12:25.511Z,29.48
2022-08-26T12:15:25.491Z,29.87
2022-08-26T12:18:29.092Z,29.78
2022-08-26T12:20:25.981Z,29.64
2022-08-26T12:23:25.540Z,29.53
2022-08-26T12:25:25.546Z,29.5
2022-08-26T12:28:25.494Z,29.97
2022-08-26T12:31:25.505Z,30.29
2022-08-26T12:34:25.471Z,30.45
2022-08-26T12:36:25.491Z,30.19
2022-08-26T12:39:25.529Z,30.46
2022-08-26T12:41:25.513Z,30.5
2022-08-26T12:43:25.527Z,30.75
2022-08-26T12:46:25.514Z,30.77
2022-08-26T12:48:25.520Z,30.61
2022-08-26T12:51:25.498Z,30.92
2022-08-26T12:53:25.532Z,30.96
2022-08-26T12:56:25.484Z,30.73
2022-08-26T12:58:25.533Z,31.15
2022-08-26T13:01:25.643Z,31.2
2022-08-26T13:03:25.589Z,31.35
2022-08-26T13:06:25.546Z,31.7
2022-08-26T13:09:25.557Z,31.96
2022-08-26T13:11:25.562Z,32.18
2022-08-26T13:14:25.500Z,32.5
2022-08-26T13:16:25.570Z,32.93
2022-08-26T13:20:25.548Z,33.1
2022-08-26T13:22:25.574Z,33.29
2022-08-26T13:25:25.516Z,34.03
2022-08-26T13:28:25.548Z,34.39
2022-08-26T13:30:25.590Z,34.37
2022-08-26T13:33:25.529Z,34.19
2022-08-26T13:35:25.583Z,34.41
2022-08-26T13:37:35.379Z,34.55
2022-08-26T13:40:25.610Z,34.47
2022-08-26T13:43:25.536Z,34.36
2022-08-26T13:46:25.588Z,33.54
2022-08-26T13:49:25.540Z,34.59
2022-08-26T13:52:30.863Z,34.17
2022-08-26T13:55:25.561Z,33.82
2022-08-26T13:57:25.519Z,34.08
2022-08-26T14:00:25.559Z,33.78
2022-08-26T14:03:25.569Z,33.22
2022-08-26T14:05:25.597Z,32.59
2022-08-26T14:08:25.553Z,32.71
2022-08-26T14:10:25.528Z,32.64
2022-08-26T14:13:25.511Z,32.88
2022-08-26T14:15:25.565Z,32.7
2022-08-26T14:17:25.658Z,32.32
2022-08-26T14:20:25.540Z,32.01
2022-08-26T14:22:25.574Z,32.05
2022-08-26T14:25:25.584Z,32.23
2022-08-26T14:33:25.640Z,31.73
2022-08-26T14:36:25.544Z,31.31
2022-08-26T14:39:25.532Z,30.57
2022-08-26T14:42:25.528Z,30.21
2022-08-26T14:45:25.526Z,29.76
2022-08-26T14:47:25.569Z,29.64
2022-08-26T14:50:25.553Z,29.29
2022-08-26T14:53:25.528Z,29.5
2022-08-26T14:55:25.555Z,29.68
2022-08-26T14:58:25.543Z,29.88
2022-08-26T15:01:29.070Z,29.71
2022-08-26T15:03:25.597Z,30.35
2022-08-26T15:06:25.569Z,29.43
2022-08-26T15:08:25.595Z,28.96
2022-08-26T15:11:25.557Z,29.74
2022-08-26T15:13:25.646Z,29.79
2022-08-26T15:16:25.636Z,30.08
2022-08-26T15:18:25.561Z,30.1
2022-08-26T15:20:25.600Z,30.25
2022-08-26T15:23:25.636Z,30.29
2022-08-26T15:26:25.567Z,30.41
2022-08-26T15:28:25.552Z,30.06
2022-08-26T15:30:25.548Z,29.34
2022-08-26T15:33:25.561Z,29.2
2022-08-26T15:35:25.607Z,29.06
2022-08-26T15:38:25.586Z,29.27
2022-08-26T15:40:25.611Z,29.5
2022-08-26T15:43:28.899Z,29.45
2022-08-26T15:45:26.068Z,29.93
2022-08-26T15:48:25.636Z,31.01
2022-08-26T15:50:25.630Z,32.31
2022-08-26T15:53:25.615Z,33.02
2022-08-26T15:55:25.637Z,33.35
2022-08-26T15:58:25.902Z,33.61
2022-08-26T16:01:27.308Z,34.04
2022-08-26T16:04:25.635Z,34.33
2022-08-26T16:06:25.632Z,34.58
2022-08-26T16:09:25.618Z,34.62
2022-08-26T16:12:25.599Z,34.87
2022-08-26T16:14:25.642Z,35.1
2022-08-26T16:17:25.610Z,35.41
2022-08-26T16:20:25.655Z,36.24
2022-08-26T16:23:25.594Z,36.25
2022-08-26T16:25:25.615Z,36.51
2022-08-26T16:28:26.272Z,37.03
2022-08-26T16:31:25.627Z,37.62
2022-08-26T16:33:26.818Z,38.04
2022-08-26T16:35:25.634Z,38.01
2022-08-26T16:37:25.631Z,38.22
2022-08-26T16:40:25.653Z,38.35
2022-08-26T16:42:25.602Z,38.58
2022-08-26T16:45:25.617Z,38.58
2022-08-26T16:48:25.622Z,38.97
2022-08-26T16:50:25.632Z,39.41
2022-08-26T16:53:25.617Z,39.8
2022-08-26T16:56:27.639Z,40.35
2022-08-26T16:59:25.647Z,40.81
2022-08-26T17:02:25.739Z,40.53
2022-08-26T17:05:25.611Z,40.36
2022-08-26T17:08:28.592Z,39.08
2022-08-26T17:10:25.664Z,39.59
2022-08-26T17:13:34.974Z,39.7
2022-08-26T17:15:25.822Z,39.82
2022-08-26T17:18:25.632Z,40.01
2022-08-26T17:21:25.641Z,40.23
2022-08-26T17:23:25.645Z,40.01
2022-08-26T17:26:25.634Z,38.92
2022-08-26T17:28:25.672Z,39.2
2022-08-26T17:31:25.686Z,37.82
2022-08-26T17:33:25.642Z,38.42
2022-08-26T17:36:27.777Z,38.52
2022-08-26T17:38:25.654Z,37.7
2022-08-26T17:41:25.653Z,38.87
2022-08-26T17:44:25.629Z,39.75
2022-08-26T17:46:25.730Z,39.77
2022-08-26T17:48:25.647Z,39.8
2022-08-26T17:51:25.654Z,39.17
2022-08-26T17:54:25.662Z,39.93
2022-08-26T17:56:25.693Z,39.21
2022-08-26T17:59:27.943Z,39.9
2022-08-26T18:02:25.731Z,39.99
2022-08-26T18:04:25.708Z,39.97
2022-08-26T18:07:25.656Z,39.65
2022-08-26T18:10:25.637Z,39.68
2022-08-26T18:13:25.598Z,39.57
2022-08-26T18:15:25.724Z,38.9
2022-08-26T18:17:25.653Z,39.65
2022-08-26T18:20:25.636Z,39.75
2022-08-26T18:22:25.658Z,39.98
2022-08-26T18:25:25.647Z,40.1
2022-08-26T18:27:25.719Z,39.69
2022-08-26T18:30:25.626Z,40.03
2022-08-26T18:32:25.640Z,40.52
2022-08-26T18:34:25.660Z,40.54
2022-08-26T18:36:25.699Z,40.43
2022-08-26T18:39:25.649Z,40.67
2022-08-26T18:41:25.664Z,40.98
2022-08-26T18:44:25.655Z,40.94
2022-08-26T18:46:25.696Z,41.06
2022-08-26T18:48:25.672Z,40.81
2022-08-26T18:51:25.674Z,40.56
2022-08-26T18:54:25.690Z,40.66
2022-08-26T18:57:25.663Z,40.72
2022-08-26T18:59:26.875Z,41.46
2022-08-26T19:02:25.759Z,40.82
2022-08-26T19:04:25.671Z,41.1
2022-08-26T19:06:25.713Z,41.24
2022-08-26T19:08:25.729Z,41.2
2022-08-26T19:11:31.268Z,40.94
2022-08-26T19:15:25.920Z,41.3
2022-08-26T19:18:25.691Z,41.93
2022-08-26T19:20:25.699Z,40.94
2022-08-26T19:23:31.706Z,40.71
2022-08-26T19:25:25.679Z,40.93
2022-08-26T19:27:25.696Z,42.15
2022-08-26T19:30:26.191Z,41.5
2022-08-26T19:33:25.638Z,42.69
2022-08-26T19:35:28.829Z,41.7
2022-08-26T19:38:25.690Z,42.33
2022-08-26T19:41:29.476Z,41.95
2022-08-26T19:43:25.647Z,42.6
2022-08-26T19:46:25.826Z,41.52
2022-08-26T19:49:25.664Z,42.79
2022-08-26T19:51:25.674Z,43
2022-08-26T19:54:25.670Z,41.22
2022-08-26T19:57:25.675Z,42.84
2022-08-26T19:59:25.713Z,41.88
2022-08-26T20:02:26.483Z,42.96
2022-08-26T20:05:25.659Z,42.09
2022-08-26T20:07:25.694Z,43.04
2022-08-26T20:10:25.685Z,42.84
2022-08-26T20:13:25.660Z,40.81
2022-08-26T20:15:25.677Z,41.66
2022-08-26T20:18:25.739Z,42.69
2022-08-26T20:21:25.676Z,42.73
2022-08-26T20:23:25.710Z,41.64
2022-08-26T20:26:25.708Z,41.52
2022-08-26T20:29:25.678Z,41.44
2022-08-26T20:31:25.902Z,41.82
2022-08-26T20:34:25.953Z,41.87
2022-08-26T20:37:25.692Z,41.72
2022-08-26T20:40:25.760Z,42.08
2022-08-26T20:42:25.699Z,41.83
2022-08-26T20:45:25.740Z,41.84
2022-08-26T20:48:25.720Z,41.47
2022-08-26T20:50:25.699Z,42.3
2022-08-26T20:53:25.781Z,45.84
2022-08-26T20:55:25.719Z,48.54
2022-08-26T20:57:25.729Z,49.05
2022-08-26T21:00:26.525Z,48.96
2022-08-26T21:02:25.701Z,49.95
2022-08-26T21:05:25.719Z,48.36
2022-08-26T21:07:25.744Z,49.61
2022-08-26T21:22:25.714Z,47.1
2022-08-26T21:25:25.714Z,48.83
2022-08-26T21:27:26.182Z,48.55
2022-08-26T21:30:25.750Z,48.34
2022-08-26T21:36:25.772Z,49.3
2022-08-26T21:39:25.764Z,48.12
2022-08-26T21:42:25.747Z,50.49
2022-08-26T21:45:25.802Z,49.62
2022-08-26T21:48:25.724Z,49.01
2022-08-26T21:51:25.756Z,48.94
2022-08-26T21:53:32.990Z,48.19
2022-08-26T21:56:25.736Z,46.6
2022-08-26T21:59:25.771Z,48.82
2022-08-26T22:01:25.869Z,49.38
2022-08-26T22:04:25.751Z,47.73
2022-08-26T22:07:25.776Z,48.71
2022-08-26T22:10:25.749Z,49.44
2022-08-26T22:12:25.738Z,50.04
2022-08-26T22:14:29.839Z,49.56
2022-08-26T22:17:25.741Z,50.86
2022-08-26T22:19:25.799Z,50.53
2022-08-26T22:22:25.723Z,51.75
2022-08-26T22:24:25.790Z,52.16
2022-08-26T22:27:25.783Z,51.36
2022-08-26T22:30:25.757Z,49.88
2022-08-26T22:33:57.947Z,49.66
2022-08-26T22:35:28.570Z,50.37
2022-08-26T22:37:26.227Z,49.58
2022-08-26T22:40:25.842Z,51.48
2022-08-26T22:42:25.755Z,51.53
2022-08-26T22:44:25.765Z,51.23
2022-08-26T22:47:25.739Z,50.31
2022-08-26T22:49:25.784Z,51.56
2022-08-26T22:51:25.795Z,52.11
2022-08-26T22:54:25.738Z,51.82
2022-08-26T22:56:25.810Z,51.34
2022-08-26T22:59:25.777Z,51.33
2022-08-26T23:01:25.890Z,52.52
2022-08-26T23:04:25.749Z,53.12
2022-08-26T23:06:26.164Z,50.81
2022-08-26T23:09:25.738Z,52.58
2022-08-26T23:12:25.758Z,50.44
2022-08-26T23:15:25.739Z,50.13
2022-08-26T23:17:25.751Z,52.27
2022-08-26T23:20:25.746Z,50.98
2022-08-26T23:22:25.745Z,51.95
2022-08-26T23:24:25.760Z,52.47
2022-08-26T23:26:25.771Z,52.6
2022-08-26T23:29:25.755Z,51.23
2022-08-26T23:32:25.767Z,51.39
2022-08-26T23:35:25.771Z,51
2022-08-26T23:38:25.890Z,52.79
2022-08-26T23:41:25.796Z,52.35
2022-08-26T23:44:25.773Z,52.72
2022-08-26T23:47:25.770Z,53.06
2022-08-26T23:50:25.775Z,53.22
2022-08-26T23:52:25.795Z,52.86
2022-08-26T23:55:25.736Z,53.01
2022-08-26T23:58:25.752Z,53.08
